Aviation Digital Data Service (ADDS)

Output produced by METARs form (0945 UTC 26 May 2019)
found at http://www.aviationweather.gov/metar/data/
 
TAF FGSL 260500Z 2606/2712 26006KT 9999 TS SCT010 FEW020CB 
     PROB30 
     TEMPO 2606/2611 4000 TSRA BKN008 SCT016CB 
     BECMG 2611/2613 NSW 
     TEMPO 2620/2708 TS